sensor_id;sensor_type;location;lat;lon;timestamp;P1;durP1;ratioP1;P2;durP2;ratioP2
75691;SDS011;64307;52.508;6.090;2023-08-21T00:02:21;5.50;;;1.43;;
75691;SDS011;64307;52.508;6.090;2023-08-21T00:04:46;5.70;;;1.27;;
75691;SDS011;64307;52.508;6.090;2023-08-21T00:07:12;6.60;;;1.90;;
75691;SDS011;64307;52.508;6.090;2023-08-21T00:09:37;5.80;;;1.35;;
75691;SDS011;64307;52.508;6.090;2023-08-21T00:12:04;9.95;;;1.73;;
75691;SDS011;64307;52.508;6.090;2023-08-21T00:14:31;6.68;;;1.70;;
75691;SDS011;64307;52.508;6.090;2023-08-21T00:16:56;6.32;;;1.73;;
75691;SDS011;64307;52.508;6.090;2023-08-21T00:19:22;5.72;;;1.83;;
75691;SDS011;64307;52.508;6.090;2023-08-21T00:21:47;8.30;;;1.88;;
75691;SDS011;64307;52.508;6.090;2023-08-21T00:24:13;6.00;;;1.77;;
75691;SDS011;64307;52.508;6.090;2023-08-21T00:26:38;7.22;;;1.67;;
75691;SDS011;64307;52.508;6.090;2023-08-21T00:29:03;4.72;;;1.67;;
75691;SDS011;64307;52.508;6.090;2023-08-21T00:31:29;5.18;;;1.67;;
75691;SDS011;64307;52.508;6.090;2023-08-21T00:33:55;5.18;;;1.13;;
75691;SDS011;64307;52.508;6.090;2023-08-21T00:36:20;5.33;;;1.60;;
75691;SDS011;64307;52.508;6.090;2023-08-21T00:38:45;8.10;;;1.83;;
75691;SDS011;64307;52.508;6.090;2023-08-21T00:41:11;6.85;;;1.50;;
75691;SDS011;64307;52.508;6.090;2023-08-21T00:43:37;5.43;;;1.40;;
75691;SDS011;64307;52.508;6.090;2023-08-21T00:46:02;7.88;;;1.73;;
75691;SDS011;64307;52.508;6.090;2023-08-21T00:48:28;5.93;;;1.55;;
75691;SDS011;64307;52.508;6.090;2023-08-21T00:50:54;7.05;;;1.50;;
75691;SDS011;64307;52.508;6.090;2023-08-21T00:53:20;7.13;;;1.50;;
75691;SDS011;64307;52.508;6.090;2023-08-21T00:55:47;6.50;;;1.30;;
75691;SDS011;64307;52.508;6.090;2023-08-21T00:58:12;5.28;;;1.85;;
75691;SDS011;64307;52.508;6.090;2023-08-21T01:00:39;6.07;;;1.67;;
75691;SDS011;64307;52.508;6.090;2023-08-21T01:03:05;5.85;;;1.50;;
75691;SDS011;64307;52.508;6.090;2023-08-21T01:05:31;8.27;;;1.70;;
75691;SDS011;64307;52.508;6.090;2023-08-21T01:07:59;7.57;;;1.80;;
75691;SDS011;64307;52.508;6.090;2023-08-21T01:10:39;7.05;;;1.50;;
75691;SDS011;64307;52.508;6.090;2023-08-21T01:13:47;8.15;;;1.73;;
75691;SDS011;64307;52.508;6.090;2023-08-21T01:16:13;10.75;;;1.60;;
75691;SDS011;64307;52.508;6.090;2023-08-21T01:18:39;5.88;;;1.27;;
75691;SDS011;64307;52.508;6.090;2023-08-21T01:21:05;6.75;;;1.75;;
75691;SDS011;64307;52.508;6.090;2023-08-21T01:23:34;6.72;;;1.30;;
75691;SDS011;64307;52.508;6.090;2023-08-21T01:26:02;6.65;;;1.75;;
75691;SDS011;64307;52.508;6.090;2023-08-21T01:28:28;6.00;;;1.55;;
75691;SDS011;64307;52.508;6.090;2023-08-21T01:30:58;5.80;;;1.33;;
75691;SDS011;64307;52.508;6.090;2023-08-21T01:33:47;8.70;;;1.42;;
75691;SDS011;64307;52.508;6.090;2023-08-21T01:36:16;8.52;;;1.55;;
75691;SDS011;64307;52.508;6.090;2023-08-21T01:38:42;5.30;;;1.30;;
75691;SDS011;64307;52.508;6.090;2023-08-21T01:41:08;5.68;;;1.42;;
75691;SDS011;64307;52.508;6.090;2023-08-21T01:43:33;11.43;;;1.47;;
75691;SDS011;64307;52.508;6.090;2023-08-21T01:45:59;5.37;;;1.30;;
75691;SDS011;64307;52.508;6.090;2023-08-21T01:48:26;5.97;;;1.52;;
75691;SDS011;64307;52.508;6.090;2023-08-21T01:50:51;9.03;;;1.40;;
75691;SDS011;64307;52.508;6.090;2023-08-21T01:53:16;5.77;;;1.30;;
75691;SDS011;64307;52.508;6.090;2023-08-21T01:55:41;6.53;;;1.57;;
75691;SDS011;64307;52.508;6.090;2023-08-21T01:58:07;3.80;;;1.35;;
75691;SDS011;64307;52.508;6.090;2023-08-21T02:00:32;5.17;;;1.20;;
75691;SDS011;64307;52.508;6.090;2023-08-21T02:02:57;4.23;;;1.63;;
75691;SDS011;64307;52.508;6.090;2023-08-21T02:05:22;5.90;;;1.20;;
75691;SDS011;64307;52.508;6.090;2023-08-21T02:07:48;3.03;;;1.30;;
75691;SDS011;64307;52.508;6.090;2023-08-21T02:10:13;4.47;;;1.37;;
75691;SDS011;64307;52.508;6.090;2023-08-21T02:12:38;3.95;;;1.15;;
75691;SDS011;64307;52.508;6.090;2023-08-21T02:15:04;6.13;;;1.08;;
75691;SDS011;64307;52.508;6.090;2023-08-21T02:17:30;6.05;;;1.30;;
75691;SDS011;64307;52.508;6.090;2023-08-21T02:19:55;6.20;;;1.30;;
75691;SDS011;64307;52.508;6.090;2023-08-21T02:22:20;6.03;;;1.17;;
75691;SDS011;64307;52.508;6.090;2023-08-21T02:24:46;6.07;;;1.42;;
75691;SDS011;64307;52.508;6.090;2023-08-21T02:27:11;8.25;;;1.75;;
75691;SDS011;64307;52.508;6.090;2023-08-21T02:29:36;3.37;;;1.03;;
75691;SDS011;64307;52.508;6.090;2023-08-21T02:32:02;5.05;;;1.73;;
75691;SDS011;64307;52.508;6.090;2023-08-21T02:34:27;7.20;;;1.58;;
75691;SDS011;64307;52.508;6.090;2023-08-21T02:36:52;4.95;;;1.65;;
75691;SDS011;64307;52.508;6.090;2023-08-21T02:39:18;6.82;;;1.80;;
75691;SDS011;64307;52.508;6.090;2023-08-21T02:41:43;4.97;;;1.50;;
75691;SDS011;64307;52.508;6.090;2023-08-21T02:44:08;7.17;;;1.67;;
75691;SDS011;64307;52.508;6.090;2023-08-21T02:46:33;7.88;;;1.77;;
75691;SDS011;64307;52.508;6.090;2023-08-21T02:49:01;7.65;;;1.30;;
75691;SDS011;64307;52.508;6.090;2023-08-21T02:51:26;6.13;;;1.42;;
75691;SDS011;64307;52.508;6.090;2023-08-21T02:53:51;4.73;;;1.07;;
75691;SDS011;64307;52.508;6.090;2023-08-21T02:56:17;3.85;;;1.00;;
75691;SDS011;64307;52.508;6.090;2023-08-21T02:58:42;3.05;;;1.00;;
75691;SDS011;64307;52.508;6.090;2023-08-21T03:01:07;6.90;;;1.50;;
75691;SDS011;64307;52.508;6.090;2023-08-21T03:03:33;6.82;;;1.60;;
75691;SDS011;64307;52.508;6.090;2023-08-21T03:06:00;5.20;;;1.20;;
75691;SDS011;64307;52.508;6.090;2023-08-21T03:08:26;7.28;;;1.48;;
75691;SDS011;64307;52.508;6.090;2023-08-21T03:10:51;7.20;;;1.53;;
75691;SDS011;64307;52.508;6.090;2023-08-21T03:13:16;4.73;;;1.03;;
75691;SDS011;64307;52.508;6.090;2023-08-21T03:15:41;3.33;;;1.37;;
75691;SDS011;64307;52.508;6.090;2023-08-21T03:18:06;6.40;;;1.30;;
75691;SDS011;64307;52.508;6.090;2023-08-21T03:20:32;5.07;;;1.43;;
75691;SDS011;64307;52.508;6.090;2023-08-21T03:22:57;6.07;;;1.33;;
75691;SDS011;64307;52.508;6.090;2023-08-21T03:25:22;7.07;;;1.80;;
75691;SDS011;64307;52.508;6.090;2023-08-21T03:27:47;8.77;;;1.47;;
75691;SDS011;64307;52.508;6.090;2023-08-21T03:30:14;6.45;;;1.60;;
75691;SDS011;64307;52.508;6.090;2023-08-21T03:32:40;5.88;;;1.45;;
75691;SDS011;64307;52.508;6.090;2023-08-21T03:35:05;6.10;;;1.80;;
75691;SDS011;64307;52.508;6.090;2023-08-21T03:37:30;4.55;;;1.92;;
75691;SDS011;64307;52.508;6.090;2023-08-21T03:39:55;5.37;;;1.67;;
75691;SDS011;64307;52.508;6.090;2023-08-21T03:42:21;5.33;;;1.40;;
75691;SDS011;64307;52.508;6.090;2023-08-21T03:44:46;6.43;;;1.63;;
75691;SDS011;64307;52.508;6.090;2023-08-21T03:47:14;5.03;;;1.20;;
75691;SDS011;64307;52.508;6.090;2023-08-21T03:49:39;5.63;;;1.53;;
75691;SDS011;64307;52.508;6.090;2023-08-21T03:52:05;4.50;;;1.33;;
75691;SDS011;64307;52.508;6.090;2023-08-21T03:54:30;6.50;;;1.77;;
75691;SDS011;64307;52.508;6.090;2023-08-21T03:56:55;6.37;;;1.47;;
75691;SDS011;64307;52.508;6.090;2023-08-21T03:59:21;8.70;;;1.80;;
75691;SDS011;64307;52.508;6.090;2023-08-21T04:01:47;6.28;;;1.50;;
75691;SDS011;64307;52.508;6.090;2023-08-21T04:04:13;8.70;;;1.85;;
75691;SDS011;64307;52.508;6.090;2023-08-21T04:06:38;5.10;;;2.05;;
75691;SDS011;64307;52.508;6.090;2023-08-21T04:09:03;5.40;;;1.50;;
75691;SDS011;64307;52.508;6.090;2023-08-21T04:11:31;8.00;;;1.70;;
75691;SDS011;64307;52.508;6.090;2023-08-21T04:13:57;6.18;;;1.67;;
75691;SDS011;64307;52.508;6.090;2023-08-21T04:16:24;5.40;;;1.50;;
75691;SDS011;64307;52.508;6.090;2023-08-21T04:18:49;6.97;;;1.70;;
75691;SDS011;64307;52.508;6.090;2023-08-21T04:21:15;5.18;;;1.63;;
75691;SDS011;64307;52.508;6.090;2023-08-21T04:23:41;5.00;;;1.77;;
75691;SDS011;64307;52.508;6.090;2023-08-21T04:26:06;6.67;;;1.80;;
75691;SDS011;64307;52.508;6.090;2023-08-21T04:28:32;4.20;;;1.48;;
75691;SDS011;64307;52.508;6.090;2023-08-21T04:30:58;6.72;;;1.90;;
75691;SDS011;64307;52.508;6.090;2023-08-21T04:33:25;8.30;;;1.77;;
75691;SDS011;64307;52.508;6.090;2023-08-21T04:35:51;5.95;;;1.85;;
75691;SDS011;64307;52.508;6.090;2023-08-21T04:38:17;6.20;;;1.70;;
75691;SDS011;64307;52.508;6.090;2023-08-21T04:40:42;5.90;;;2.03;;
75691;SDS011;64307;52.508;6.090;2023-08-21T04:43:07;7.77;;;2.20;;
75691;SDS011;64307;52.508;6.090;2023-08-21T04:45:33;5.47;;;1.70;;
75691;SDS011;64307;52.508;6.090;2023-08-21T04:47:58;6.27;;;2.13;;
75691;SDS011;64307;52.508;6.090;2023-08-21T04:50:23;7.20;;;2.50;;
75691;SDS011;64307;52.508;6.090;2023-08-21T04:52:48;8.02;;;2.58;;
75691;SDS011;64307;52.508;6.090;2023-08-21T04:55:15;10.93;;;2.65;;
75691;SDS011;64307;52.508;6.090;2023-08-21T04:57:40;7.38;;;2.30;;
75691;SDS011;64307;52.508;6.090;2023-08-21T05:00:06;5.60;;;2.40;;
75691;SDS011;64307;52.508;6.090;2023-08-21T05:02:31;8.80;;;2.58;;
75691;SDS011;64307;52.508;6.090;2023-08-21T05:04:57;5.23;;;2.20;;
75691;SDS011;64307;52.508;6.090;2023-08-21T05:07:22;7.57;;;2.40;;
75691;SDS011;64307;52.508;6.090;2023-08-21T05:09:47;5.03;;;2.38;;
75691;SDS011;64307;52.508;6.090;2023-08-21T05:12:12;7.25;;;2.42;;
75691;SDS011;64307;52.508;6.090;2023-08-21T05:14:38;6.37;;;2.80;;
75691;SDS011;64307;52.508;6.090;2023-08-21T05:17:03;7.73;;;3.00;;
75691;SDS011;64307;52.508;6.090;2023-08-21T05:19:28;8.05;;;2.05;;
75691;SDS011;64307;52.508;6.090;2023-08-21T05:21:54;9.50;;;2.47;;
75691;SDS011;64307;52.508;6.090;2023-08-21T05:24:19;7.33;;;2.40;;
75691;SDS011;64307;52.508;6.090;2023-08-21T05:26:44;6.63;;;2.20;;
75691;SDS011;64307;52.508;6.090;2023-08-21T05:29:09;10.10;;;2.53;;
75691;SDS011;64307;52.508;6.090;2023-08-21T05:31:35;6.87;;;2.60;;
75691;SDS011;64307;52.508;6.090;2023-08-21T05:34:00;8.30;;;2.88;;
75691;SDS011;64307;52.508;6.090;2023-08-21T05:36:25;7.80;;;2.70;;
75691;SDS011;64307;52.508;6.090;2023-08-21T05:38:50;6.65;;;2.88;;
75691;SDS011;64307;52.508;6.090;2023-08-21T05:41:16;7.70;;;2.88;;
75691;SDS011;64307;52.508;6.090;2023-08-21T05:43:41;6.20;;;2.70;;
75691;SDS011;64307;52.508;6.090;2023-08-21T05:46:07;8.15;;;2.88;;
75691;SDS011;64307;52.508;6.090;2023-08-21T05:48:32;7.78;;;3.05;;
75691;SDS011;64307;52.508;6.090;2023-08-21T05:50:58;8.35;;;2.72;;
75691;SDS011;64307;52.508;6.090;2023-08-21T05:53:23;7.90;;;2.63;;
75691;SDS011;64307;52.508;6.090;2023-08-21T05:55:48;10.43;;;2.58;;
75691;SDS011;64307;52.508;6.090;2023-08-21T05:58:14;6.00;;;2.50;;
75691;SDS011;64307;52.508;6.090;2023-08-21T06:00:39;6.65;;;2.45;;
75691;SDS011;64307;52.508;6.090;2023-08-21T06:03:05;11.35;;;2.97;;
75691;SDS011;64307;52.508;6.090;2023-08-21T06:05:30;8.40;;;2.85;;
75691;SDS011;64307;52.508;6.090;2023-08-21T06:07:55;6.82;;;2.00;;
75691;SDS011;64307;52.508;6.090;2023-08-21T06:10:21;8.45;;;2.45;;
75691;SDS011;64307;52.508;6.090;2023-08-21T06:12:47;8.80;;;2.72;;
75691;SDS011;64307;52.508;6.090;2023-08-21T06:15:13;9.90;;;2.63;;
75691;SDS011;64307;52.508;6.090;2023-08-21T06:17:38;7.15;;;2.22;;
75691;SDS011;64307;52.508;6.090;2023-08-21T06:20:04;9.57;;;2.40;;
75691;SDS011;64307;52.508;6.090;2023-08-21T06:22:32;7.57;;;2.28;;
75691;SDS011;64307;52.508;6.090;2023-08-21T06:24:57;6.78;;;2.15;;
75691;SDS011;64307;52.508;6.090;2023-08-21T06:27:23;8.15;;;1.83;;
75691;SDS011;64307;52.508;6.090;2023-08-21T06:29:48;6.55;;;1.95;;
75691;SDS011;64307;52.508;6.090;2023-08-21T06:32:13;7.60;;;1.52;;
75691;SDS011;64307;52.508;6.090;2023-08-21T06:34:39;7.93;;;1.95;;
75691;SDS011;64307;52.508;6.090;2023-08-21T06:37:04;6.55;;;1.25;;
75691;SDS011;64307;52.508;6.090;2023-08-21T06:39:29;5.67;;;1.40;;
75691;SDS011;64307;52.508;6.090;2023-08-21T06:41:55;4.15;;;1.10;;
75691;SDS011;64307;52.508;6.090;2023-08-21T06:44:22;10.05;;;1.52;;
75691;SDS011;64307;52.508;6.090;2023-08-21T06:46:47;6.00;;;1.63;;
75691;SDS011;64307;52.508;6.090;2023-08-21T06:49:12;7.00;;;1.50;;
75691;SDS011;64307;52.508;6.090;2023-08-21T06:51:38;6.80;;;1.05;;
75691;SDS011;64307;52.508;6.090;2023-08-21T06:54:03;7.80;;;1.30;;
75691;SDS011;64307;52.508;6.090;2023-08-21T06:56:28;5.63;;;1.02;;
75691;SDS011;64307;52.508;6.090;2023-08-21T06:58:53;6.80;;;1.13;;
75691;SDS011;64307;52.508;6.090;2023-08-21T07:01:20;4.70;;;0.85;;
75691;SDS011;64307;52.508;6.090;2023-08-21T07:03:45;4.05;;;0.80;;
75691;SDS011;64307;52.508;6.090;2023-08-21T07:06:11;5.95;;;1.13;;
75691;SDS011;64307;52.508;6.090;2023-08-21T07:08:36;4.40;;;1.00;;
75691;SDS011;64307;52.508;6.090;2023-08-21T07:11:02;5.30;;;1.20;;
75691;SDS011;64307;52.508;6.090;2023-08-21T07:13:30;5.00;;;1.27;;
75691;SDS011;64307;52.508;6.090;2023-08-21T07:15:56;5.22;;;1.50;;
75691;SDS011;64307;52.508;6.090;2023-08-21T07:18:21;6.07;;;1.02;;
75691;SDS011;64307;52.508;6.090;2023-08-21T07:20:46;4.78;;;0.85;;
75691;SDS011;64307;52.508;6.090;2023-08-21T07:23:11;4.45;;;1.00;;
75691;SDS011;64307;52.508;6.090;2023-08-21T07:25:37;6.68;;;1.13;;
75691;SDS011;64307;52.508;6.090;2023-08-21T07:28:02;6.80;;;1.30;;
75691;SDS011;64307;52.508;6.090;2023-08-21T07:30:29;7.55;;;1.17;;
75691;SDS011;64307;52.508;6.090;2023-08-21T07:32:54;6.40;;;0.80;;
75691;SDS011;64307;52.508;6.090;2023-08-21T07:35:19;7.93;;;1.33;;
75691;SDS011;64307;52.508;6.090;2023-08-21T07:37:45;6.70;;;1.30;;
75691;SDS011;64307;52.508;6.090;2023-08-21T07:40:11;5.88;;;1.25;;
75691;SDS011;64307;52.508;6.090;2023-08-21T07:42:36;6.22;;;1.23;;
75691;SDS011;64307;52.508;6.090;2023-08-21T07:45:02;6.30;;;1.23;;
75691;SDS011;64307;52.508;6.090;2023-08-21T07:47:28;6.22;;;1.23;;
75691;SDS011;64307;52.508;6.090;2023-08-21T07:49:53;6.32;;;1.50;;
75691;SDS011;64307;52.508;6.090;2023-08-21T07:52:19;4.78;;;1.23;;
75691;SDS011;64307;52.508;6.090;2023-08-21T07:54:45;5.63;;;0.98;;
75691;SDS011;64307;52.508;6.090;2023-08-21T07:57:10;5.67;;;1.00;;
75691;SDS011;64307;52.508;6.090;2023-08-21T07:59:36;5.53;;;1.10;;
75691;SDS011;64307;52.508;6.090;2023-08-21T08:02:01;8.00;;;1.07;;
75691;SDS011;64307;52.508;6.090;2023-08-21T08:04:28;4.75;;;0.90;;
75691;SDS011;64307;52.508;6.090;2023-08-21T08:06:53;6.10;;;0.98;;
75691;SDS011;64307;52.508;6.090;2023-08-21T08:09:18;5.75;;;1.20;;
75691;SDS011;64307;52.508;6.090;2023-08-21T08:11:44;6.07;;;1.15;;
75691;SDS011;64307;52.508;6.090;2023-08-21T08:14:09;6.63;;;0.85;;
75691;SDS011;64307;52.508;6.090;2023-08-21T08:16:34;5.27;;;0.83;;
75691;SDS011;64307;52.508;6.090;2023-08-21T08:18:59;7.07;;;1.13;;
75691;SDS011;64307;52.508;6.090;2023-08-21T08:21:25;5.40;;;1.13;;
75691;SDS011;64307;52.508;6.090;2023-08-21T08:23:50;6.93;;;1.70;;
75691;SDS011;64307;52.508;6.090;2023-08-21T08:26:15;6.23;;;1.20;;
75691;SDS011;64307;52.508;6.090;2023-08-21T08:28:41;5.32;;;1.35;;
75691;SDS011;64307;52.508;6.090;2023-08-21T08:31:07;5.22;;;0.98;;
75691;SDS011;64307;52.508;6.090;2023-08-21T08:33:39;6.97;;;0.82;;
75691;SDS011;64307;52.508;6.090;2023-08-21T08:36:04;4.87;;;0.83;;
75691;SDS011;64307;52.508;6.090;2023-08-21T08:38:30;7.07;;;1.75;;
75691;SDS011;64307;52.508;6.090;2023-08-21T08:40:55;6.53;;;1.23;;
75691;SDS011;64307;52.508;6.090;2023-08-21T08:43:21;6.55;;;1.73;;
75691;SDS011;64307;52.508;6.090;2023-08-21T08:45:50;5.13;;;1.40;;
75691;SDS011;64307;52.508;6.090;2023-08-21T08:48:19;6.80;;;1.38;;
75691;SDS011;64307;52.508;6.090;2023-08-21T08:50:45;7.47;;;2.15;;
75691;SDS011;64307;52.508;6.090;2023-08-21T08:53:11;6.22;;;1.95;;
75691;SDS011;64307;52.508;6.090;2023-08-21T08:55:37;6.47;;;2.50;;
75691;SDS011;64307;52.508;6.090;2023-08-21T08:58:03;6.37;;;1.87;;
75691;SDS011;64307;52.508;6.090;2023-08-21T09:00:28;5.25;;;1.17;;
75691;SDS011;64307;52.508;6.090;2023-08-21T09:02:54;6.88;;;1.65;;
75691;SDS011;64307;52.508;6.090;2023-08-21T09:05:21;5.03;;;1.42;;
75691;SDS011;64307;52.508;6.090;2023-08-21T09:07:51;5.57;;;1.23;;
75691;SDS011;64307;52.508;6.090;2023-08-21T09:10:27;8.55;;;1.45;;
75691;SDS011;64307;52.508;6.090;2023-08-21T09:12:53;5.03;;;1.77;;
75691;SDS011;64307;52.508;6.090;2023-08-21T09:15:23;7.63;;;1.42;;
75691;SDS011;64307;52.508;6.090;2023-08-21T09:17:53;5.85;;;1.70;;
75691;SDS011;64307;52.508;6.090;2023-08-21T09:20:18;5.78;;;1.58;;
75691;SDS011;64307;52.508;6.090;2023-08-21T09:22:52;5.25;;;1.10;;
75691;SDS011;64307;52.508;6.090;2023-08-21T09:25:18;6.35;;;1.33;;
75691;SDS011;64307;52.508;6.090;2023-08-21T09:27:43;7.93;;;1.92;;
75691;SDS011;64307;52.508;6.090;2023-08-21T09:30:09;6.65;;;1.58;;
75691;SDS011;64307;52.508;6.090;2023-08-21T09:32:51;8.00;;;1.67;;
75691;SDS011;64307;52.508;6.090;2023-08-21T09:35:24;7.55;;;1.13;;
75691;SDS011;64307;52.508;6.090;2023-08-21T09:37:52;6.13;;;1.48;;
75691;SDS011;64307;52.508;6.090;2023-08-21T09:40:18;7.10;;;1.25;;
75691;SDS011;64307;52.508;6.090;2023-08-21T09:42:44;8.70;;;1.58;;
75691;SDS011;64307;52.508;6.090;2023-08-21T09:45:11;7.00;;;1.42;;
75691;SDS011;64307;52.508;6.090;2023-08-21T09:47:37;9.25;;;1.83;;
75691;SDS011;64307;52.508;6.090;2023-08-21T09:50:05;5.05;;;1.02;;
75691;SDS011;64307;52.508;6.090;2023-08-21T09:52:31;6.60;;;1.35;;
75691;SDS011;64307;52.508;6.090;2023-08-21T09:54:57;5.32;;;1.17;;
75691;SDS011;64307;52.508;6.090;2023-08-21T09:57:23;5.68;;;1.30;;
75691;SDS011;64307;52.508;6.090;2023-08-21T09:59:52;7.55;;;0.98;;
75691;SDS011;64307;52.508;6.090;2023-08-21T10:02:19;6.07;;;1.40;;
75691;SDS011;64307;52.508;6.090;2023-08-21T10:04:51;5.97;;;0.90;;
75691;SDS011;64307;52.508;6.090;2023-08-21T10:07:17;8.32;;;0.90;;
75691;SDS011;64307;52.508;6.090;2023-08-21T10:09:48;6.43;;;1.45;;
75691;SDS011;64307;52.508;6.090;2023-08-21T10:12:14;6.40;;;1.40;;
75691;SDS011;64307;52.508;6.090;2023-08-21T10:14:40;5.53;;;1.17;;
75691;SDS011;64307;52.508;6.090;2023-08-21T10:17:06;7.22;;;1.05;;
75691;SDS011;64307;52.508;6.090;2023-08-21T10:19:33;10.15;;;1.33;;
75691;SDS011;64307;52.508;6.090;2023-08-21T10:21:59;5.85;;;1.08;;
75691;SDS011;64307;52.508;6.090;2023-08-21T10:24:28;6.10;;;1.13;;
75691;SDS011;64307;52.508;6.090;2023-08-21T10:26:59;4.95;;;0.82;;
75691;SDS011;64307;52.508;6.090;2023-08-21T10:29:25;5.95;;;0.95;;
75691;SDS011;64307;52.508;6.090;2023-08-21T10:32:01;7.63;;;0.98;;
75691;SDS011;64307;52.508;6.090;2023-08-21T10:34:32;6.60;;;1.27;;
75691;SDS011;64307;52.508;6.090;2023-08-21T10:39:29;4.93;;;0.77;;
75691;SDS011;64307;52.508;6.090;2023-08-21T10:41:57;5.90;;;1.40;;
75691;SDS011;64307;52.508;6.090;2023-08-21T10:44:38;6.15;;;1.05;;
75691;SDS011;64307;52.508;6.090;2023-08-21T10:50:10;6.35;;;1.55;;
75691;SDS011;64307;52.508;6.090;2023-08-21T10:52:36;6.25;;;1.35;;
75691;SDS011;64307;52.508;6.090;2023-08-21T10:55:06;6.75;;;1.25;;
75691;SDS011;64307;52.508;6.090;2023-08-21T10:57:34;6.18;;;1.17;;
75691;SDS011;64307;52.508;6.090;2023-08-21T11:00:07;4.88;;;0.85;;
75691;SDS011;64307;52.508;6.090;2023-08-21T11:02:35;4.82;;;0.68;;
75691;SDS011;64307;52.508;6.090;2023-08-21T11:05:01;4.93;;;0.93;;
75691;SDS011;64307;52.508;6.090;2023-08-21T11:07:28;5.32;;;0.93;;
75691;SDS011;64307;52.508;6.090;2023-08-21T11:09:54;6.88;;;1.33;;
75691;SDS011;64307;52.508;6.090;2023-08-21T11:12:20;5.95;;;1.00;;
75691;SDS011;64307;52.508;6.090;2023-08-21T11:14:47;5.18;;;0.60;;
75691;SDS011;64307;52.508;6.090;2023-08-21T11:17:13;7.55;;;1.23;;
75691;SDS011;64307;52.508;6.090;2023-08-21T11:19:39;4.63;;;0.65;;
75691;SDS011;64307;52.508;6.090;2023-08-21T11:22:05;3.70;;;0.55;;
75691;SDS011;64307;52.508;6.090;2023-08-21T11:27:05;3.25;;;0.90;;
75691;SDS011;64307;52.508;6.090;2023-08-21T11:32:14;4.53;;;0.70;;
75691;SDS011;64307;52.508;6.090;2023-08-21T11:34:50;5.75;;;0.57;;
75691;SDS011;64307;52.508;6.090;2023-08-21T11:37:20;4.97;;;1.15;;
75691;SDS011;64307;52.508;6.090;2023-08-21T11:39:47;4.15;;;0.80;;
75691;SDS011;64307;52.508;6.090;2023-08-21T11:42:16;4.88;;;0.73;;
75691;SDS011;64307;52.508;6.090;2023-08-21T11:44:43;3.67;;;0.82;;
75691;SDS011;64307;52.508;6.090;2023-08-21T11:47:13;4.20;;;0.70;;
75691;SDS011;64307;52.508;6.090;2023-08-21T11:49:40;3.85;;;0.75;;
75691;SDS011;64307;52.508;6.090;2023-08-21T11:52:08;5.63;;;0.85;;
75691;SDS011;64307;52.508;6.090;2023-08-21T11:54:34;3.63;;;0.82;;
75691;SDS011;64307;52.508;6.090;2023-08-21T11:57:03;4.40;;;0.73;;
75691;SDS011;64307;52.508;6.090;2023-08-21T11:59:32;5.60;;;0.73;;
75691;SDS011;64307;52.508;6.090;2023-08-21T12:01:57;4.50;;;0.60;;
75691;SDS011;64307;52.508;6.090;2023-08-21T12:04:23;3.90;;;0.80;;
75691;SDS011;64307;52.508;6.090;2023-08-21T12:06:49;2.65;;;0.47;;
75691;SDS011;64307;52.508;6.090;2023-08-21T12:09:14;2.55;;;0.52;;
75691;SDS011;64307;52.508;6.090;2023-08-21T12:11:40;3.30;;;0.40;;
75691;SDS011;64307;52.508;6.090;2023-08-21T12:14:05;4.57;;;0.32;;
75691;SDS011;64307;52.508;6.090;2023-08-21T12:16:31;3.70;;;0.40;;
75691;SDS011;64307;52.508;6.090;2023-08-21T12:18:57;4.00;;;0.65;;
75691;SDS011;64307;52.508;6.090;2023-08-21T12:21:22;3.05;;;0.82;;
75691;SDS011;64307;52.508;6.090;2023-08-21T12:23:50;3.63;;;0.40;;
75691;SDS011;64307;52.508;6.090;2023-08-21T12:26:15;4.63;;;0.70;;
75691;SDS011;64307;52.508;6.090;2023-08-21T12:28:45;5.72;;;0.73;;
75691;SDS011;64307;52.508;6.090;2023-08-21T12:31:15;5.15;;;0.52;;
75691;SDS011;64307;52.508;6.090;2023-08-21T12:33:40;4.13;;;0.75;;
75691;SDS011;64307;52.508;6.090;2023-08-21T12:36:06;4.03;;;0.52;;
75691;SDS011;64307;52.508;6.090;2023-08-21T12:38:33;2.65;;;0.50;;
75691;SDS011;64307;52.508;6.090;2023-08-21T12:40:59;4.85;;;0.68;;
75691;SDS011;64307;52.508;6.090;2023-08-21T12:43:24;2.17;;;0.63;;
75691;SDS011;64307;52.508;6.090;2023-08-21T12:45:50;5.03;;;0.52;;
75691;SDS011;64307;52.508;6.090;2023-08-21T12:48:15;2.35;;;0.30;;
75691;SDS011;64307;52.508;6.090;2023-08-21T12:50:42;6.25;;;0.52;;
75691;SDS011;64307;52.508;6.090;2023-08-21T12:53:07;2.37;;;0.40;;
75691;SDS011;64307;52.508;6.090;2023-08-21T12:55:33;2.90;;;0.32;;
75691;SDS011;64307;52.508;6.090;2023-08-21T12:58:00;3.53;;;0.65;;
75691;SDS011;64307;52.508;6.090;2023-08-21T13:00:26;2.22;;;0.47;;
75691;SDS011;64307;52.508;6.090;2023-08-21T13:02:51;3.20;;;0.32;;
75691;SDS011;64307;52.508;6.090;2023-08-21T13:05:17;4.88;;;0.40;;
75691;SDS011;64307;52.508;6.090;2023-08-21T13:07:43;4.80;;;0.63;;
75691;SDS011;64307;52.508;6.090;2023-08-21T13:10:08;3.63;;;0.60;;
75691;SDS011;64307;52.508;6.090;2023-08-21T13:12:34;8.07;;;0.98;;
75691;SDS011;64307;52.508;6.090;2023-08-21T13:14:59;5.05;;;0.65;;
75691;SDS011;64307;52.508;6.090;2023-08-21T13:17:25;6.35;;;0.57;;
75691;SDS011;64307;52.508;6.090;2023-08-21T13:19:50;2.65;;;0.50;;
75691;SDS011;64307;52.508;6.090;2023-08-21T13:22:19;4.97;;;0.60;;
75691;SDS011;64307;52.508;6.090;2023-08-21T13:24:44;4.13;;;0.73;;
75691;SDS011;64307;52.508;6.090;2023-08-21T13:27:09;5.67;;;0.77;;
75691;SDS011;64307;52.508;6.090;2023-08-21T13:29:37;5.97;;;0.90;;
75691;SDS011;64307;52.508;6.090;2023-08-21T13:32:04;6.22;;;1.05;;
75691;SDS011;64307;52.508;6.090;2023-08-21T13:34:30;6.13;;;0.93;;
75691;SDS011;64307;52.508;6.090;2023-08-21T13:36:55;4.07;;;1.00;;
75691;SDS011;64307;52.508;6.090;2023-08-21T13:39:20;4.77;;;0.90;;
75691;SDS011;64307;52.508;6.090;2023-08-21T13:41:47;5.60;;;0.73;;
75691;SDS011;64307;52.508;6.090;2023-08-21T13:44:14;5.97;;;1.10;;
75691;SDS011;64307;52.508;6.090;2023-08-21T13:46:39;5.28;;;0.82;;
75691;SDS011;64307;52.508;6.090;2023-08-21T13:49:04;4.20;;;0.82;;
75691;SDS011;64307;52.508;6.090;2023-08-21T13:51:31;4.68;;;0.63;;
75691;SDS011;64307;52.508;6.090;2023-08-21T13:53:56;3.50;;;0.70;;
75691;SDS011;64307;52.508;6.090;2023-08-21T13:56:23;3.95;;;0.63;;
75691;SDS011;64307;52.508;6.090;2023-08-21T13:58:48;6.20;;;1.00;;
75691;SDS011;64307;52.508;6.090;2023-08-21T14:01:13;4.43;;;0.77;;
75691;SDS011;64307;52.508;6.090;2023-08-21T14:03:39;4.90;;;0.90;;
75691;SDS011;64307;52.508;6.090;2023-08-21T14:06:05;6.28;;;1.00;;
75691;SDS011;64307;52.508;6.090;2023-08-21T14:08:31;5.80;;;1.15;;
75691;SDS011;64307;52.508;6.090;2023-08-21T14:10:56;5.43;;;0.93;;
75691;SDS011;64307;52.508;6.090;2023-08-21T14:13:21;5.07;;;0.73;;
75691;SDS011;64307;52.508;6.090;2023-08-21T14:15:47;7.43;;;1.10;;
75691;SDS011;64307;52.508;6.090;2023-08-21T14:18:12;5.80;;;0.80;;
75691;SDS011;64307;52.508;6.090;2023-08-21T14:20:37;3.25;;;0.60;;
75691;SDS011;64307;52.508;6.090;2023-08-21T14:23:03;3.40;;;0.50;;
75691;SDS011;64307;52.508;6.090;2023-08-21T14:25:30;6.82;;;0.70;;
75691;SDS011;64307;52.508;6.090;2023-08-21T14:27:55;3.13;;;0.43;;
75691;SDS011;64307;52.508;6.090;2023-08-21T14:30:20;6.13;;;0.93;;
75691;SDS011;64307;52.508;6.090;2023-08-21T14:32:46;5.93;;;0.82;;
75691;SDS011;64307;52.508;6.090;2023-08-21T14:35:11;6.25;;;0.73;;
75691;SDS011;64307;52.508;6.090;2023-08-21T14:37:36;6.32;;;0.50;;
75691;SDS011;64307;52.508;6.090;2023-08-21T14:40:02;4.90;;;0.73;;
75691;SDS011;64307;52.508;6.090;2023-08-21T14:42:33;3.85;;;0.60;;
75691;SDS011;64307;52.508;6.090;2023-08-21T14:44:58;5.40;;;0.73;;
75691;SDS011;64307;52.508;6.090;2023-08-21T14:47:24;4.40;;;0.70;;
75691;SDS011;64307;52.508;6.090;2023-08-21T14:49:49;4.03;;;0.70;;
75691;SDS011;64307;52.508;6.090;2023-08-21T14:52:16;4.90;;;0.73;;
75691;SDS011;64307;52.508;6.090;2023-08-21T14:54:41;4.80;;;0.93;;